createdAt,value
2018-05-25T00:00:54.243Z,102120.39
2018-05-25T00:03:21.672Z,102124.61
2018-05-25T00:05:49.085Z,102118.77
2018-05-25T00:08:16.495Z,102120.07
2018-05-25T00:10:43.908Z,102124.09
2018-05-25T00:13:11.332Z,102116.50
2018-05-25T00:15:38.753Z,102127.70
2018-05-25T00:18:06.164Z,102127.30
2018-05-25T00:20:33.573Z,102126.58
2018-05-25T00:23:00.996Z,102120.92
2018-05-25T00:25:28.405Z,102122.20
2018-05-25T00:27:55.815Z,102123.44
2018-05-25T00:30:23.224Z,102128.06
2018-05-25T00:32:50.653Z,102129.33
2018-05-25T00:35:18.057Z,102120.42
2018-05-25T00:37:45.477Z,102118.35
2018-05-25T00:40:12.891Z,102116.06
2018-05-25T00:42:40.310Z,102117.00
2018-05-25T00:45:07.721Z,102115.55
2018-05-25T00:47:35.136Z,102116.84
2018-05-25T00:50:02.577Z,102118.00
2018-05-25T00:52:29.994Z,102115.23
2018-05-25T00:55:09.208Z,102116.94
2018-05-25T00:57:36.621Z,102110.63
2018-05-25T01:00:04.035Z,102113.38
2018-05-25T01:02:31.445Z,102116.53
2018-05-25T01:04:58.852Z,102116.83
2018-05-25T01:07:26.270Z,102113.79
2018-05-25T01:09:53.684Z,102113.68
2018-05-25T01:12:21.124Z,102111.05
2018-05-25T01:14:48.534Z,102109.76
2018-05-25T01:17:15.940Z,102108.30
2018-05-25T01:19:43.352Z,102110.01
2018-05-25T01:22:10.764Z,102108.77
2018-05-25T01:24:38.180Z,102107.89
2018-05-25T01:27:05.596Z,102107.52
2018-05-25T01:29:33.005Z,102111.81
2018-05-25T01:32:00.412Z,102109.89
2018-05-25T01:34:27.833Z,102114.93
2018-05-25T01:36:55.244Z,102112.13
2018-05-25T01:39:22.651Z,102108.59
2018-05-25T01:41:50.089Z,102102.17
2018-05-25T01:44:17.500Z,102105.53
2018-05-25T01:46:44.900Z,102104.34
2018-05-25T01:49:12.321Z,102107.64
2018-05-25T01:51:39.736Z,102108.05
2018-05-25T01:54:07.154Z,102101.48
2018-05-25T01:56:34.560Z,102103.26
2018-05-25T01:59:01.983Z,102108.94
2018-05-25T02:01:29.387Z,102108.53
2018-05-25T02:03:56.796Z,102101.12
2018-05-25T02:06:24.208Z,102099.83
2018-05-25T02:08:51.620Z,102104.00
2018-05-25T02:11:19.038Z,102095.30
2018-05-25T02:13:46.462Z,102094.74
2018-05-25T02:16:13.864Z,102098.92
2018-05-25T02:18:41.289Z,102100.92
2018-05-25T02:21:08.697Z,102101.65
2018-05-25T02:23:36.114Z,102095.70
2018-05-25T02:26:03.512Z,102089.52
2018-05-25T02:28:30.927Z,102093.65
2018-05-25T02:30:58.340Z,102090.56
2018-05-25T02:33:25.781Z,102091.73
2018-05-25T02:35:53.182Z,102092.61
2018-05-25T02:38:20.592Z,102094.80
2018-05-25T02:40:48.000Z,102091.02
2018-05-25T02:43:15.412Z,102093.08
2018-05-25T02:45:42.824Z,102098.37
2018-05-25T02:48:10.232Z,102095.67
2018-05-25T02:50:37.653Z,102094.67
2018-05-25T02:53:05.059Z,102098.51
2018-05-25T02:55:32.484Z,102088.83
2018-05-25T02:57:59.893Z,102088.87
2018-05-25T03:00:27.307Z,102094.61
2018-05-25T03:02:54.708Z,102089.38
2018-05-25T03:05:22.124Z,102092.66
2018-05-25T03:07:49.542Z,102096.88
2018-05-25T03:10:16.952Z,102092.16
2018-05-25T03:12:44.369Z,102090.52
2018-05-25T03:15:11.784Z,102087.98
2018-05-25T03:17:39.196Z,102087.69
2018-05-25T03:20:06.621Z,102082.61
2018-05-25T03:22:34.028Z,102088.28
2018-05-25T03:25:01.444Z,102084.45
2018-05-25T03:27:28.845Z,102091.20
2018-05-25T03:29:56.264Z,102088.16
2018-05-25T03:32:23.668Z,102087.69
2018-05-25T03:34:51.085Z,102094.60
2018-05-25T03:37:18.497Z,102091.23
2018-05-25T03:39:45.913Z,102092.26
2018-05-25T03:42:13.319Z,102090.17
2018-05-25T03:44:40.736Z,102085.79
2018-05-25T03:47:08.151Z,102090.90
2018-05-25T03:49:35.572Z,102089.31
2018-05-25T03:52:02.979Z,102090.55
2018-05-25T03:54:30.393Z,102094.33
2018-05-25T03:56:57.800Z,102091.41
2018-05-25T03:59:37.013Z,102093.28
2018-05-25T04:02:04.426Z,102091.98
2018-05-25T04:04:31.836Z,102090.29
2018-05-25T04:07:00.054Z,102086.48
2018-05-25T04:09:27.469Z,102086.35
2018-05-25T04:11:54.872Z,102087.08
2018-05-25T04:14:22.317Z,102089.00
2018-05-25T04:16:49.696Z,102092.45
2018-05-25T04:19:17.100Z,102093.61
2018-05-25T04:21:44.516Z,102094.36
2018-05-25T04:24:11.928Z,102089.78
2018-05-25T04:26:39.343Z,102094.87
2018-05-25T04:29:06.753Z,102089.92
2018-05-25T04:31:34.164Z,102092.77
2018-05-25T04:34:01.574Z,102091.94
2018-05-25T04:36:28.983Z,102091.70
2018-05-25T04:38:56.385Z,102096.11
2018-05-25T04:41:23.801Z,102092.11
2018-05-25T04:43:51.293Z,102095.39
2018-05-25T04:46:18.756Z,102091.52
2018-05-25T04:48:46.188Z,102091.33
2018-05-25T04:51:13.666Z,102093.94
2018-05-25T04:53:41.079Z,102092.85
2018-05-25T04:56:08.483Z,102081.84
2018-05-25T04:58:35.900Z,102080.23
2018-05-25T05:01:03.398Z,102085.72
2018-05-25T05:03:30.796Z,102089.20
2018-05-25T05:05:58.216Z,102085.20
2018-05-25T05:08:25.650Z,102085.41
2018-05-25T05:10:53.076Z,102090.44
2018-05-25T05:13:20.585Z,102090.89
2018-05-25T05:15:48.010Z,102094.97
2018-05-25T05:18:15.440Z,102104.70
2018-05-25T05:20:42.856Z,102091.31
2018-05-25T05:23:10.268Z,102095.45
2018-05-25T05:25:37.692Z,102090.25
2018-05-25T05:28:05.095Z,102095.64
2018-05-25T05:30:32.512Z,102094.27
2018-05-25T05:32:59.924Z,102090.92
2018-05-25T05:35:27.354Z,102087.67
2018-05-25T05:37:54.760Z,102090.22
2018-05-25T05:40:22.178Z,102089.12
2018-05-25T05:42:49.626Z,102095.08
2018-05-25T05:45:17.044Z,102086.19
2018-05-25T05:47:44.527Z,102091.27
2018-05-25T05:50:11.988Z,102095.73
2018-05-25T05:52:39.444Z,102087.98
2018-05-25T05:55:06.928Z,102091.78
2018-05-25T05:57:34.345Z,102090.98
2018-05-25T06:00:01.753Z,102093.01
2018-05-25T06:02:29.173Z,102096.55
2018-05-25T06:04:56.580Z,102088.16
2018-05-25T06:07:24.081Z,102092.19
2018-05-25T06:09:51.528Z,102099.38
2018-05-25T06:12:18.987Z,102100.33
2018-05-25T06:14:46.393Z,102101.23
2018-05-25T06:17:13.816Z,102100.97
2018-05-25T06:19:41.235Z,102104.67
2018-05-25T06:22:08.657Z,102099.98
2018-05-25T06:24:36.161Z,102095.95
2018-05-25T06:27:03.580Z,102098.90
2018-05-25T06:29:31.004Z,102107.23
2018-05-25T06:31:58.523Z,102103.82
2018-05-25T06:34:25.920Z,102107.40
2018-05-25T06:36:53.348Z,102106.64
2018-05-25T06:39:20.764Z,102112.58
2018-05-25T06:41:48.245Z,102110.81
2018-05-25T06:44:15.661Z,102114.23
2018-05-25T06:46:43.160Z,102120.84
2018-05-25T06:49:10.620Z,102116.75
2018-05-25T06:51:38.064Z,102115.55
2018-05-25T06:54:05.472Z,102114.23
2018-05-25T06:56:32.885Z,102120.14
2018-05-25T06:59:00.328Z,102123.94
2018-05-25T07:01:27.753Z,102122.16
2018-05-25T07:03:55.160Z,102122.20
2018-05-25T07:06:22.596Z,102120.23
2018-05-25T07:08:50.089Z,102122.02
2018-05-25T07:11:17.553Z,102117.75
2018-05-25T07:13:44.962Z,102122.16
2018-05-25T07:16:12.426Z,102120.22
2018-05-25T07:18:39.839Z,102125.76
2018-05-25T07:21:07.261Z,102124.52
2018-05-25T07:23:34.682Z,102120.43
2018-05-25T07:26:02.107Z,102120.08
2018-05-25T07:28:29.521Z,102119.93
2018-05-25T07:30:56.939Z,102117.86
2018-05-25T07:33:24.422Z,102122.64
2018-05-25T07:35:51.793Z,102115.50
2018-05-25T07:38:19.225Z,102116.42
2018-05-25T07:40:46.641Z,102113.55
2018-05-25T07:43:14.060Z,102124.16
2018-05-25T07:45:41.484Z,102118.56
2018-05-25T07:48:08.910Z,102111.20
2018-05-25T07:50:36.329Z,102116.07
2018-05-25T07:53:03.752Z,102116.92
2018-05-25T07:55:31.168Z,102111.67
2018-05-25T07:57:58.589Z,102112.51
2018-05-25T08:00:26.000Z,102107.06
2018-05-25T08:02:53.433Z,102106.83
2018-05-25T08:05:20.849Z,102103.97
2018-05-25T08:07:48.273Z,102100.91
2018-05-25T08:10:15.692Z,102103.91
2018-05-25T08:12:43.116Z,102102.30
2018-05-25T08:15:10.533Z,102099.62
2018-05-25T08:17:37.972Z,102098.50
2018-05-25T08:20:05.388Z,102105.53
2018-05-25T08:22:32.817Z,102099.23
2018-05-25T08:25:00.228Z,102100.00
2018-05-25T08:27:27.672Z,102103.31
2018-05-25T08:29:55.097Z,102096.45
2018-05-25T08:32:22.557Z,102096.91
2018-05-25T08:34:49.966Z,102096.66
2018-05-25T08:37:17.400Z,102090.38
2018-05-25T08:39:44.811Z,102090.41
2018-05-25T08:42:12.236Z,102093.34
2018-05-25T08:44:39.660Z,102094.34
2018-05-25T08:47:07.158Z,102100.12
2018-05-25T08:49:34.629Z,102091.20
2018-05-25T08:52:02.009Z,102102.98
2018-05-25T08:54:29.432Z,102100.08
2018-05-25T08:56:56.884Z,102101.69
2018-05-25T08:59:24.296Z,102102.09
2018-05-25T09:01:51.721Z,102100.39
2018-05-25T09:04:19.156Z,102100.14
2018-05-25T09:06:46.591Z,102089.06
2018-05-25T09:09:14.000Z,102095.70
2018-05-25T09:11:41.421Z,102101.39
2018-05-25T09:14:08.848Z,102095.03
2018-05-25T09:16:36.268Z,102086.67
2018-05-25T09:19:04.719Z,102084.23
2018-05-25T09:21:32.139Z,102088.98
2018-05-25T09:23:59.564Z,102088.50
2018-05-25T09:26:27.085Z,102093.47
2018-05-25T09:28:54.511Z,102087.64
2018-05-25T09:31:21.935Z,102080.00
2018-05-25T09:33:49.355Z,102084.36
2018-05-25T09:36:16.778Z,102088.79
2018-05-25T09:38:44.229Z,102097.55
2018-05-25T09:41:11.657Z,102103.14
2018-05-25T09:43:39.084Z,102098.48
2018-05-25T09:46:06.604Z,102091.57
2018-05-25T09:48:34.096Z,102090.67
2018-05-25T09:51:01.540Z,102087.75
2018-05-25T09:53:28.968Z,102094.91
2018-05-25T09:55:56.384Z,102095.09
2018-05-25T09:58:23.809Z,102098.08
2018-05-25T10:00:51.233Z,102093.70
2018-05-25T10:03:18.660Z,102102.70
2018-05-25T10:05:46.072Z,102097.23
2018-05-25T10:08:13.501Z,102103.73
2018-05-25T10:10:40.912Z,102088.09
2018-05-25T10:13:08.337Z,102096.75
2018-05-25T10:15:35.753Z,102090.39
2018-05-25T10:18:03.200Z,102097.64
2018-05-25T10:20:30.633Z,102090.00
2018-05-25T10:22:58.057Z,102087.04
2018-05-25T10:25:25.486Z,102085.73
2018-05-25T10:27:52.924Z,102085.77
2018-05-25T10:30:20.365Z,102087.50
2018-05-25T10:32:47.790Z,102081.00
2018-05-25T10:35:15.200Z,102064.86
2018-05-25T10:37:42.632Z,102084.33
2018-05-25T10:40:10.059Z,102087.02
2018-05-25T10:42:37.479Z,102077.68
2018-05-25T10:45:04.921Z,102074.47
2018-05-25T10:47:32.340Z,102080.17
2018-05-25T10:49:59.761Z,102083.55
2018-05-25T10:52:27.179Z,102074.52
2018-05-25T10:54:54.602Z,102081.80
2018-05-25T10:57:22.015Z,102084.59
2018-05-25T10:59:49.438Z,102074.73
2018-05-25T11:02:16.864Z,102069.89
2018-05-25T11:04:44.290Z,102077.02
2018-05-25T11:07:11.709Z,102075.63
2018-05-25T11:09:39.141Z,102075.80
2018-05-25T11:12:06.563Z,102079.67
2018-05-25T11:14:33.991Z,102072.59
2018-05-25T11:17:01.418Z,102074.06
2018-05-25T11:19:28.836Z,102079.76
2018-05-25T11:21:56.250Z,102074.55
2018-05-25T11:24:23.686Z,102068.36
2018-05-25T11:26:51.092Z,102069.09
2018-05-25T11:29:18.512Z,102073.64
2018-05-25T11:31:45.930Z,102059.12
2018-05-25T11:34:13.384Z,102047.47
2018-05-25T11:36:40.796Z,102050.20
2018-05-25T11:39:08.229Z,102055.72
2018-05-25T11:41:35.644Z,102042.44
2018-05-25T11:44:03.064Z,102036.63
2018-05-25T11:46:30.494Z,102049.56
2018-05-25T11:48:57.937Z,102053.55
2018-05-25T11:51:26.316Z,102043.47
2018-05-25T11:53:53.748Z,102038.95
2018-05-25T11:56:21.173Z,102025.34
2018-05-25T11:58:48.597Z,102029.96
2018-05-25T12:01:16.028Z,102041.71
2018-05-25T12:03:43.487Z,102041.48
2018-05-25T12:06:10.952Z,102037.78
2018-05-25T12:08:38.376Z,102024.13
2018-05-25T12:11:05.869Z,102038.33
2018-05-25T12:13:33.313Z,102031.06
2018-05-25T12:16:00.768Z,102026.59
2018-05-25T12:18:28.192Z,102021.42
2018-05-25T12:20:55.684Z,102033.48
2018-05-25T12:23:23.104Z,102028.32
2018-05-25T12:25:50.596Z,102024.41
2018-05-25T12:28:18.013Z,102015.00
2018-05-25T12:30:45.441Z,102019.80
2018-05-25T12:33:12.956Z,102031.47
2018-05-25T12:35:40.397Z,102026.86
2018-05-25T12:38:07.817Z,102025.05
2018-05-25T12:40:35.313Z,102033.82
2018-05-25T12:43:02.789Z,102020.77
2018-05-25T12:45:30.233Z,102019.70
2018-05-25T12:47:57.659Z,102014.05
2018-05-25T12:50:25.176Z,102025.97
2018-05-25T12:52:52.599Z,102025.20
2018-05-25T12:55:20.055Z,102029.83
2018-05-25T12:57:47.480Z,102024.69
2018-05-25T13:00:14.904Z,102026.59
2018-05-25T13:02:42.315Z,102018.87
2018-05-25T13:05:09.776Z,102018.20
2018-05-25T13:07:37.241Z,102016.47
2018-05-25T13:10:04.660Z,102018.51
2018-05-25T13:12:32.145Z,102030.37
2018-05-25T13:14:59.605Z,102019.87
2018-05-25T13:17:27.032Z,102022.31
2018-05-25T13:19:54.451Z,102009.87
2018-05-25T13:22:21.876Z,102017.52
2018-05-25T13:24:49.302Z,102022.50
2018-05-25T13:27:16.725Z,102024.45
2018-05-25T13:29:44.148Z,102020.20
2018-05-25T13:32:11.569Z,102024.38
2018-05-25T13:34:39.008Z,102026.45
2018-05-25T13:37:06.420Z,102017.98
2018-05-25T13:39:33.850Z,102028.16
2018-05-25T13:42:01.274Z,102022.39
2018-05-25T13:44:28.766Z,102024.77
2018-05-25T13:46:56.227Z,102010.76
2018-05-25T13:49:23.668Z,102022.09
2018-05-25T13:51:51.096Z,102006.99
2018-05-25T13:54:18.580Z,102010.47
2018-05-25T13:56:46.004Z,102015.02
2018-05-25T13:59:13.492Z,102009.07
2018-05-25T14:01:40.916Z,102015.81
2018-05-25T14:04:08.418Z,102018.81
2018-05-25T14:06:35.867Z,102016.73
2018-05-25T14:09:03.284Z,102007.58
2018-05-25T14:11:30.788Z,102003.88
2018-05-25T14:13:58.196Z,102010.25
2018-05-25T14:16:25.687Z,102009.09
2018-05-25T14:18:53.137Z,102010.68
2018-05-25T14:21:20.561Z,102004.16
2018-05-25T14:23:47.976Z,102012.52
2018-05-25T14:26:15.521Z,102007.95
2018-05-25T14:28:42.933Z,102002.47
2018-05-25T14:31:10.405Z,102009.11
2018-05-25T14:33:37.808Z,102013.03
2018-05-25T14:36:05.284Z,102014.54
2018-05-25T14:38:32.792Z,102012.09
2018-05-25T14:41:00.237Z,102009.83
2018-05-25T14:43:27.705Z,102004.31
2018-05-25T14:45:55.136Z,102004.77
2018-05-25T14:48:22.553Z,102000.64
2018-05-25T14:50:50.027Z,102005.83
2018-05-25T14:53:17.476Z,102012.64
2018-05-25T14:55:44.888Z,102007.92
2018-05-25T14:58:12.311Z,102006.58
2018-05-25T15:00:39.740Z,102003.42
2018-05-25T15:03:07.252Z,102010.38
2018-05-25T15:05:34.697Z,102010.98
2018-05-25T15:08:02.121Z,102005.55
2018-05-25T15:10:29.549Z,102022.98
2018-05-25T15:12:57.057Z,102008.52
2018-05-25T15:15:24.473Z,102015.59
2018-05-25T15:17:51.975Z,102014.00
2018-05-25T15:20:19.412Z,102013.02
2018-05-25T15:22:46.823Z,102018.79
2018-05-25T15:25:14.245Z,102025.08
2018-05-25T15:27:41.672Z,102014.69
2018-05-25T15:30:09.095Z,102020.34
2018-05-25T15:32:36.769Z,102005.98
2018-05-25T15:35:04.028Z,102012.00
2018-05-25T15:37:31.452Z,102014.19
2018-05-25T15:39:58.877Z,102016.75
2018-05-25T15:42:26.304Z,102015.67
2018-05-25T15:44:53.728Z,102001.06
2018-05-25T15:47:21.172Z,102012.20
2018-05-25T15:49:48.596Z,102007.31
2018-05-25T15:52:16.029Z,102011.91
2018-05-25T15:54:43.448Z,102001.72
2018-05-25T15:57:10.880Z,102010.33
2018-05-25T15:59:38.300Z,102021.81
2018-05-25T16:02:05.724Z,102002.20
2018-05-25T16:04:33.153Z,102020.03
2018-05-25T16:07:00.580Z,102019.44
2018-05-25T16:09:28.006Z,102021.08
2018-05-25T16:11:55.423Z,102027.38
2018-05-25T16:14:22.844Z,102017.27
2018-05-25T16:16:50.273Z,102022.78
2018-05-25T16:19:17.684Z,102020.99
2018-05-25T16:21:45.197Z,102024.05
2018-05-25T16:24:12.612Z,102019.56
2018-05-25T16:26:40.044Z,102027.52
2018-05-25T16:29:07.463Z,102014.80
2018-05-25T16:31:34.897Z,102023.48
2018-05-25T16:34:02.308Z,102028.16
2018-05-25T16:36:29.742Z,102031.78
2018-05-25T16:38:57.159Z,102029.91
2018-05-25T16:41:24.582Z,102034.71
2018-05-25T16:43:51.996Z,102033.21
2018-05-25T16:46:19.416Z,102034.31
2018-05-25T16:48:46.839Z,102044.20
2018-05-25T16:51:14.264Z,102039.87
2018-05-25T16:53:41.725Z,102043.64
2018-05-25T16:56:09.136Z,102044.97
2018-05-25T16:58:36.632Z,102059.25
2018-05-25T17:01:04.048Z,102053.41
2018-05-25T17:03:31.476Z,102054.17
2018-05-25T17:05:58.923Z,102052.98
2018-05-25T17:08:26.320Z,102055.76
2018-05-25T17:10:53.732Z,102062.61
2018-05-25T17:13:21.260Z,102062.91
2018-05-25T17:15:48.680Z,102058.38
2018-05-25T17:18:16.105Z,102054.08
2018-05-25T17:20:43.528Z,102050.26
2018-05-25T17:23:10.951Z,102050.83
2018-05-25T17:25:38.360Z,102053.25
2018-05-25T17:28:05.792Z,102053.49
2018-05-25T17:30:33.231Z,102049.43
2018-05-25T17:33:00.671Z,102048.04
2018-05-25T17:35:28.161Z,102045.94
2018-05-25T17:37:55.574Z,102045.72
2018-05-25T17:40:22.991Z,102040.85
2018-05-25T17:42:50.520Z,102046.64
2018-05-25T17:45:17.933Z,102049.55
2018-05-25T17:47:45.360Z,102042.49
2018-05-25T17:50:12.774Z,102041.03
2018-05-25T17:52:40.191Z,102045.88
2018-05-25T17:55:07.605Z,102043.86
2018-05-25T17:57:35.045Z,102041.02
2018-05-25T18:00:02.504Z,102046.45
2018-05-25T18:02:29.928Z,102051.59
2018-05-25T18:04:57.413Z,102057.65
2018-05-25T18:07:24.866Z,102051.52
2018-05-25T18:09:52.271Z,102057.27
2018-05-25T18:12:19.684Z,102060.56
2018-05-25T18:14:47.105Z,102050.19
2018-05-25T18:17:14.522Z,102050.50
2018-05-25T18:19:41.928Z,102057.06
2018-05-25T18:22:09.353Z,102056.44
2018-05-25T18:24:36.768Z,102056.98
2018-05-25T18:27:04.200Z,102057.20
2018-05-25T18:29:31.607Z,102058.02
2018-05-25T18:31:59.029Z,102062.03
2018-05-25T18:34:26.440Z,102063.41
2018-05-25T18:36:53.844Z,102065.13
2018-05-25T18:39:21.274Z,102072.55
2018-05-25T18:41:48.677Z,102069.05
2018-05-25T18:44:16.099Z,102077.32
2018-05-25T18:46:43.512Z,102073.77
2018-05-25T18:49:10.924Z,102083.28
2018-05-25T18:51:38.349Z,102086.02
2018-05-25T18:54:17.569Z,102083.81
2018-05-25T18:56:44.977Z,102084.81
2018-05-25T18:59:12.395Z,102087.89
2018-05-25T19:01:39.852Z,102085.69
2018-05-25T19:04:07.274Z,102090.41
2018-05-25T19:06:34.723Z,102091.33
2018-05-25T19:09:02.161Z,102089.66
2018-05-25T19:11:29.712Z,102088.97
2018-05-25T19:13:57.131Z,102090.05
2018-05-25T19:16:24.546Z,102090.03
2018-05-25T19:18:52.045Z,102089.27
2018-05-25T19:21:19.496Z,102095.66
2018-05-25T19:23:46.915Z,102095.64
2018-05-25T19:26:14.325Z,102095.36
2018-05-25T19:28:41.756Z,102100.98
2018-05-25T19:31:09.153Z,102107.66
2018-05-25T19:33:36.569Z,102103.71
2018-05-25T19:36:03.980Z,102109.86
2018-05-25T19:38:31.392Z,102112.06
2018-05-25T19:40:58.800Z,102112.41
2018-05-25T19:43:26.216Z,102114.77
2018-05-25T19:45:53.625Z,102113.48
2018-05-25T19:48:21.044Z,102114.48
2018-05-25T19:50:48.460Z,102109.75
2018-05-25T19:53:15.884Z,102112.25
2018-05-25T19:55:43.301Z,102114.59
2018-05-25T19:58:12.407Z,102119.42
2018-05-25T20:00:43.014Z,102119.69
2018-05-25T20:03:11.746Z,102115.44
2018-05-25T20:05:40.429Z,102111.95
2018-05-25T20:08:08.215Z,102118.84
2018-05-25T20:10:35.615Z,102119.70
2018-05-25T20:13:05.111Z,102124.34
2018-05-25T20:15:32.511Z,102118.95
2018-05-25T20:17:59.928Z,102124.84
2018-05-25T20:20:27.351Z,102121.14
2018-05-25T20:22:54.757Z,102128.23
2018-05-25T20:25:22.178Z,102127.61
2018-05-25T20:27:49.608Z,102130.31
2018-05-25T20:30:17.022Z,102135.17
2018-05-25T20:32:44.432Z,102134.97
2018-05-25T20:35:11.848Z,102130.89
2018-05-25T20:37:39.256Z,102137.22
2018-05-25T20:40:06.676Z,102131.87
2018-05-25T20:42:34.108Z,102128.64
2018-05-25T20:45:01.520Z,102133.06
2018-05-25T20:47:29.047Z,102132.55
2018-05-25T20:49:56.464Z,102141.25
2018-05-25T20:52:23.885Z,102139.23
2018-05-25T20:54:51.316Z,102141.34
2018-05-25T20:57:18.728Z,102133.90
2018-05-25T20:59:46.149Z,102138.66
2018-05-25T21:02:13.554Z,102138.66
2018-05-25T21:04:40.965Z,102142.62
2018-05-25T21:07:08.374Z,102153.38
2018-05-25T21:09:35.802Z,102152.59
2018-05-25T21:12:03.211Z,102159.05
2018-05-25T21:14:30.629Z,102161.08
2018-05-25T21:16:58.040Z,102156.63
2018-05-25T21:19:25.479Z,102157.88
2018-05-25T21:21:52.872Z,102165.68
2018-05-25T21:24:20.281Z,102171.69
2018-05-25T21:26:47.689Z,102177.48
2018-05-25T21:29:15.113Z,102175.41
2018-05-25T21:31:42.521Z,102168.20
2018-05-25T21:34:09.941Z,102168.86
2018-05-25T21:36:37.340Z,102169.21
2018-05-25T21:39:05.672Z,102170.30
2018-05-25T21:41:33.077Z,102173.35
2018-05-25T21:44:00.494Z,102172.02
2018-05-25T21:46:27.902Z,102167.48
2018-05-25T21:48:55.320Z,102163.85
2018-05-25T21:51:22.724Z,102168.33
2018-05-25T21:53:50.168Z,102159.42
2018-05-25T21:56:17.589Z,102163.22
2018-05-25T21:58:44.996Z,102161.77
2018-05-25T22:01:12.408Z,102164.66
2018-05-25T22:03:39.822Z,102159.47
2018-05-25T22:06:07.235Z,102162.78
2018-05-25T22:08:34.636Z,102164.75
2018-05-25T22:11:02.061Z,102158.42
2018-05-25T22:13:29.468Z,102161.16
2018-05-25T22:15:56.881Z,102165.69
2018-05-25T22:18:24.292Z,102169.30
2018-05-25T22:20:51.704Z,102176.13
2018-05-25T22:23:19.116Z,102174.11
2018-05-25T22:25:46.537Z,102173.47
2018-05-25T22:28:13.936Z,102175.48
2018-05-25T22:30:41.353Z,102173.92
2018-05-25T22:33:08.767Z,102173.46
2018-05-25T22:35:36.180Z,102182.95
2018-05-25T22:38:03.584Z,102188.79
2018-05-25T22:40:31.008Z,102196.30
2018-05-25T22:43:10.208Z,102190.48
2018-05-25T22:45:49.241Z,102195.25
2018-05-25T22:48:28.449Z,102192.55
2018-05-25T22:51:07.629Z,102185.48
2018-05-25T22:56:33.843Z,102187.06
2018-05-25T22:59:01.260Z,102181.09
2018-05-25T23:01:28.684Z,102191.09
2018-05-25T23:03:56.096Z,102185.75
2018-05-25T23:06:23.504Z,102185.09
2018-05-25T23:08:50.908Z,102184.27
2018-05-25T23:11:18.320Z,102184.05
2018-05-25T23:13:45.731Z,102179.06
2018-05-25T23:16:13.146Z,102181.84
2018-05-25T23:18:40.591Z,102176.45
2018-05-25T23:21:07.971Z,102180.33
2018-05-25T23:23:35.381Z,102184.10
2018-05-25T23:26:02.792Z,102184.45
2018-05-25T23:28:30.197Z,102179.31
2018-05-25T23:30:57.609Z,102174.41
2018-05-25T23:33:25.022Z,102173.20
2018-05-25T23:35:52.443Z,102174.38
2018-05-25T23:38:19.858Z,102168.63
2018-05-25T23:40:47.268Z,102167.64
2018-05-25T23:43:14.681Z,102164.28
2018-05-25T23:45:42.096Z,102170.09
2018-05-25T23:48:09.507Z,102167.08
2018-05-25T23:50:36.922Z,102161.08
2018-05-25T23:53:04.329Z,102168.16
2018-05-25T23:55:31.753Z,102167.11
2018-05-25T23:57:59.172Z,102168.60
